Time;durP1;ratioP1;P1;durP2;ratioP2;P2;SDS_P1;SDS_P2;PMS_P1;PMS_P2;Temp;Humidity;BMP_temperature;BMP_pressure;BME280_temperature;BME280_humidity;BME280_pressure;Samples;Min_cycle;Max_cycle;Signal;HPM_P1;HPM_P2
2023/01/06 00:00:43;;;;;;;;;;;8.30;99.90;;;;;;4974426;28;19933;-78
2023/01/06 00:03:10;;;;;;;;;;;8.30;99.90;;;;;;4964858;28;20371;-77
2023/01/06 00:05:37;;;;;;;;;;;8.30;99.90;;;;;;4973718;28;20199;-77
2023/01/06 00:08:04;;;;;;;;;;;8.20;99.90;;;;;;4967466;28;20008;-78
2023/01/06 00:10:31;;;;;;;;;;;8.20;99.90;;;;;;4972528;28;19930;-77
2023/01/06 00:12:59;;;;;;;;;;;8.20;99.90;;;;;;4951604;28;20025;-78
2023/01/06 00:15:26;;;;;;;;;;;8.20;99.90;;;;;;4966638;28;19935;-78
2023/01/06 00:17:52;;;;;;;;;;;8.20;99.90;;;;;;4943395;28;19926;-78
2023/01/06 00:20:19;;;;;;;;;;;8.20;99.90;;;;;;4955758;28;20476;-77
2023/01/06 00:22:46;;;;;;;;;;;8.20;99.90;;;;;;4969512;28;19932;-77
2023/01/06 00:25:14;;;;;;;;;;;8.20;99.90;;;;;;4961624;28;20407;-78
2023/01/06 00:27:41;;;;;;;;;;;8.20;99.90;;;;;;4964385;28;20423;-77
2023/01/06 00:30:13;;;;;;;;;;;8.20;99.90;;;;;;4966202;28;19926;-78
2023/01/06 00:32:40;;;;;;;;;;;8.20;99.90;;;;;;4962060;28;20024;-77
2023/01/06 00:35:07;;;;;;;;;;;8.20;99.90;;;;;;4970239;28;19934;-77
2023/01/06 00:37:33;;;;;;;;;;;8.20;99.90;;;;;;4951375;28;19934;-78
2023/01/06 00:40:00;;;;;;;;;;;8.20;99.90;;;;;;4969247;28;20384;-78
2023/01/06 00:42:27;;;;;;;;;;;8.20;99.90;;;;;;4961956;28;19933;-78
2023/01/06 00:44:54;;;;;;;;;;;8.20;99.90;;;;;;4960909;28;19930;-77
2023/01/06 00:47:22;;;;;;;;;;;8.20;99.90;;;;;;4967099;28;19976;-77
2023/01/06 00:49:49;;;;;;;;;;;8.20;99.90;;;;;;4970666;28;20415;-77
2023/01/06 00:52:16;;;;;;;;;;;8.20;99.90;;;;;;4971509;28;19926;-78
2023/01/06 00:54:43;;;;;;;;;;;8.20;99.90;;;;;;4965177;28;20005;-78
2023/01/06 00:57:10;;;;;;;;;;;8.20;99.90;;;;;;4972836;28;19930;-78
2023/01/06 00:59:36;;;;;;;;;;;8.20;99.90;;;;;;4965858;28;19934;-78
2023/01/06 01:02:03;;;;;;;;;;;8.20;99.90;;;;;;4967983;28;20396;-77
2023/01/06 01:04:32;;;;;;;;;;;8.10;99.90;;;;;;4968420;28;20025;-78
2023/01/06 01:06:59;;;;;;;;;;;8.20;99.90;;;;;;4961084;28;20227;-78
2023/01/06 01:09:27;;;;;;;;;;;8.10;99.90;;;;;;4962863;28;20032;-77
2023/01/06 01:12:10;;;;;;;;;;;8.10;99.90;;;;;;4972402;28;20352;-77
2023/01/06 01:14:38;;;;;;;;;;;8.10;99.90;;;;;;4959426;28;19962;-78
2023/01/06 01:17:04;;;;;;;;;;;8.10;99.90;;;;;;4971220;28;19933;-77
2023/01/06 01:19:33;;;;;;;;;;;8.10;99.90;;;;;;4970497;28;19934;-77
2023/01/06 01:22:00;;;;;;;;;;;8.10;99.90;;;;;;4975451;28;20309;-77
2023/01/06 01:24:27;;;;;;;;;;;8.10;99.90;;;;;;4959564;28;19926;-77
2023/01/06 01:26:54;;;;;;;;;;;8.10;99.90;;;;;;4967246;28;20445;-77
2023/01/06 01:29:21;;;;;;;;;;;8.10;99.90;;;;;;4966848;28;20424;-78
2023/01/06 01:31:49;;;;;;;;;;;8.10;99.90;;;;;;4974052;28;19926;-77
2023/01/06 01:34:17;;;;;;;;;;;8.10;99.90;;;;;;4973437;28;19926;-77
2023/01/06 01:36:46;;;;;;;;;;;8.10;99.90;;;;;;4970418;28;19936;-77
2023/01/06 01:39:14;;;;;;;;;;;8.10;99.90;;;;;;4971385;28;19926;-77
2023/01/06 01:41:41;;;;;;;;;;;8.10;99.90;;;;;;4967821;28;19934;-77
2023/01/06 01:44:27;;;;;;;;;;;8.10;99.90;;;;;;4971075;28;19968;-78
2023/01/06 01:46:54;;;;;;;;;;;8.10;99.90;;;;;;4993404;28;19933;-78
2023/01/06 01:49:23;;;;;;;;;;;8.10;99.90;;;;;;4975485;28;19929;-77
2023/01/06 01:51:53;;;;;;;;;;;8.10;99.90;;;;;;4988585;28;19925;-77
2023/01/06 01:54:22;;;;;;;;;;;8.10;99.90;;;;;;4973358;28;20410;-78
2023/01/06 01:56:51;;;;;;;;;;;8.10;99.90;;;;;;5001928;28;20319;-78
2023/01/06 01:59:19;;;;;;;;;;;8.10;99.90;;;;;;4986943;28;19930;-77
2023/01/06 02:01:47;;;;;;;;;;;8.10;99.90;;;;;;4970158;28;19936;-77
2023/01/06 02:04:14;;;;;;;;;;;8.10;99.90;;;;;;4970298;28;19926;-77
2023/01/06 02:06:42;;;;;;;;;;;8.10;99.90;;;;;;4960322;28;20371;-77
2023/01/06 02:09:14;;;;;;;;;;;8.00;99.90;;;;;;4984959;28;19973;-77
2023/01/06 02:11:41;;;;;;;;;;;8.10;99.90;;;;;;4975300;28;20384;-77
2023/01/06 02:14:10;;;;;;;;;;;8.00;99.90;;;;;;4984917;28;20321;-77
2023/01/06 02:16:40;;;;;;;;;;;8.00;99.90;;;;;;4983272;28;19926;-77
2023/01/06 02:19:17;;;;;;;;;;;8.10;99.90;;;;;;4987289;28;19925;-77
2023/01/06 02:21:52;;;;;;;;;;;8.00;99.90;;;;;;4974344;28;19926;-77
2023/01/06 02:24:37;;;;;;;;;;;8.00;99.90;;;;;;4962896;28;19981;-78
2023/01/06 02:27:22;;;;;;;;;;;8.00;99.90;;;;;;4963424;28;20367;-77
2023/01/06 02:30:07;;;;;;;;;;;8.00;99.90;;;;;;4971059;28;20429;-77
2023/01/06 02:32:44;;;;;;;;;;;8.00;99.90;;;;;;4974196;28;20002;-77
2023/01/06 02:35:17;;;;;;;;;;;8.00;99.90;;;;;;4968791;28;20415;-77
2023/01/06 02:37:48;;;;;;;;;;;8.00;99.90;;;;;;4984204;28;19953;-77
2023/01/06 02:40:21;;;;;;;;;;;8.00;99.90;;;;;;4983974;28;19995;-77
2023/01/06 02:42:54;;;;;;;;;;;8.00;99.90;;;;;;4967489;28;19981;-78
2023/01/06 02:45:23;;;;;;;;;;;8.00;99.90;;;;;;4981196;28;19932;-77
2023/01/06 02:47:57;;;;;;;;;;;8.00;99.90;;;;;;4965462;28;19937;-77
2023/01/06 02:50:28;;;;;;;;;;;8.00;99.90;;;;;;4976890;28;19930;-78
2023/01/06 02:52:57;;;;;;;;;;;8.00;99.90;;;;;;4980720;28;20013;-77
2023/01/06 02:55:28;;;;;;;;;;;8.00;99.90;;;;;;4969143;28;20387;-77
2023/01/06 02:57:58;;;;;;;;;;;8.00;99.90;;;;;;4964241;28;20016;-77
2023/01/06 03:00:30;;;;;;;;;;;8.00;99.90;;;;;;4981862;28;20914;-77
2023/01/06 03:03:00;;;;;;;;;;;8.00;99.90;;;;;;4973746;28;19925;-78
2023/01/06 03:05:28;;;;;;;;;;;8.00;99.90;;;;;;4978726;28;19940;-77
2023/01/06 03:07:57;;;;;;;;;;;8.00;99.90;;;;;;4968083;28;20516;-77
2023/01/06 03:10:25;;;;;;;;;;;8.00;99.90;;;;;;4969673;28;20309;-78
2023/01/06 03:12:53;;;;;;;;;;;8.00;99.90;;;;;;4982982;28;19948;-77
2023/01/06 03:15:21;;;;;;;;;;;8.00;99.90;;;;;;4967899;28;20020;-78
2023/01/06 03:17:48;;;;;;;;;;;8.00;99.90;;;;;;4988426;28;19934;-77
2023/01/06 03:20:17;;;;;;;;;;;8.00;99.90;;;;;;4965686;28;20012;-77
2023/01/06 03:22:44;;;;;;;;;;;7.90;99.90;;;;;;4972072;28;20371;-78
2023/01/06 03:25:11;;;;;;;;;;;8.00;99.90;;;;;;4975455;28;20415;-77
2023/01/06 03:27:38;;;;;;;;;;;7.90;99.90;;;;;;4994885;28;19933;-77
2023/01/06 03:30:08;;;;;;;;;;;7.90;99.90;;;;;;4968616;28;19973;-77
2023/01/06 03:32:40;;;;;;;;;;;7.90;99.90;;;;;;4976455;28;19976;-77
2023/01/06 03:35:22;;;;;;;;;;;7.90;99.90;;;;;;4993238;28;19930;-77
2023/01/06 03:37:53;;;;;;;;;;;7.90;99.90;;;;;;4985667;28;19930;-77
2023/01/06 03:40:26;;;;;;;;;;;7.90;99.90;;;;;;4973557;28;19933;-78
2023/01/06 03:45:51;;;;;;;;;;;7.90;99.90;;;;;;4971007;28;20005;-77
2023/01/06 03:48:24;;;;;;;;;;;7.90;99.90;;;;;;4967491;28;20360;-77
2023/01/06 03:50:57;;;;;;;;;;;7.90;99.90;;;;;;4988765;28;20300;-77
2023/01/06 03:53:29;;;;;;;;;;;7.90;99.90;;;;;;4979409;28;20048;-77
2023/01/06 03:55:59;;;;;;;;;;;7.90;99.90;;;;;;4970635;28;20380;-77
2023/01/06 03:58:27;;;;;;;;;;;7.90;99.90;;;;;;4987780;28;19925;-77
2023/01/06 04:00:54;;;;;;;;;;;7.90;99.90;;;;;;4970618;28;20388;-77
2023/01/06 04:03:24;;;;;;;;;;;7.80;99.90;;;;;;4974583;28;20328;-78
2023/01/06 04:05:51;;;;;;;;;;;7.80;99.90;;;;;;4970701;28;19929;-77
2023/01/06 04:08:17;;;;;;;;;;;7.80;99.90;;;;;;4970593;28;19996;-77
2023/01/06 04:10:46;;;;;;;;;;;7.80;99.90;;;;;;4968874;28;19941;-78
2023/01/06 04:13:13;;;;;;;;;;;7.80;99.90;;;;;;4978872;28;20666;-77
2023/01/06 04:15:41;;;;;;;;;;;7.80;99.90;;;;;;4971379;28;19948;-78
2023/01/06 04:18:08;;;;;;;;;;;7.80;99.90;;;;;;4975615;28;20343;-77
2023/01/06 04:20:38;;;;;;;;;;;7.80;99.90;;;;;;4978652;28;19926;-77
2023/01/06 04:23:15;;;;;;;;;;;7.80;99.90;;;;;;4971367;28;20404;-77
2023/01/06 04:25:43;;;;;;;;;;;7.80;99.90;;;;;;4963340;28;19930;-78
2023/01/06 04:28:16;;;;;;;;;;;7.80;99.90;;;;;;4966046;28;19937;-77
2023/01/06 04:30:44;;;;;;;;;;;7.80;99.90;;;;;;4968544;28;20028;-77
2023/01/06 04:33:12;;;;;;;;;;;7.70;99.90;;;;;;4988264;28;19926;-77
2023/01/06 04:35:40;;;;;;;;;;;7.70;99.90;;;;;;4980459;28;19933;-77
2023/01/06 04:38:08;;;;;;;;;;;7.70;99.90;;;;;;4972044;28;19961;-77
2023/01/06 04:40:35;;;;;;;;;;;7.70;99.90;;;;;;4969304;28;19955;-77
2023/01/06 04:43:04;;;;;;;;;;;7.70;99.90;;;;;;4986168;28;19933;-77
2023/01/06 04:45:33;;;;;;;;;;;7.70;99.90;;;;;;4971634;28;20406;-78
2023/01/06 04:48:00;;;;;;;;;;;7.70;99.90;;;;;;4991222;28;20439;-77
2023/01/06 04:50:27;;;;;;;;;;;7.70;99.90;;;;;;4967405;28;20647;-77
2023/01/06 04:52:54;;;;;;;;;;;7.70;99.90;;;;;;4991498;28;19988;-78
2023/01/06 04:55:21;;;;;;;;;;;7.70;99.90;;;;;;4989535;28;19925;-77
2023/01/06 04:57:47;;;;;;;;;;;7.70;99.90;;;;;;4989476;28;19926;-77
2023/01/06 05:00:15;;;;;;;;;;;7.70;99.90;;;;;;4993651;28;20431;-78
2023/01/06 05:02:43;;;;;;;;;;;7.70;99.90;;;;;;4996770;28;19926;-77
2023/01/06 05:05:10;;;;;;;;;;;7.70;99.90;;;;;;4988955;28;19933;-77
2023/01/06 05:07:37;;;;;;;;;;;7.70;99.90;;;;;;4994552;28;19926;-77
2023/01/06 05:10:04;;;;;;;;;;;7.70;99.90;;;;;;4994491;28;19937;-76
2023/01/06 05:12:31;;;;;;;;;;;7.70;99.90;;;;;;4992972;28;19930;-77
2023/01/06 05:14:58;;;;;;;;;;;7.70;99.90;;;;;;4988070;28;20466;-77
2023/01/06 05:17:25;;;;;;;;;;;7.70;99.90;;;;;;4989644;28;19942;-78
2023/01/06 05:19:53;;;;;;;;;;;7.70;99.90;;;;;;4995137;28;20623;-78
2023/01/06 05:22:20;;;;;;;;;;;7.70;99.90;;;;;;4973454;28;19957;-77
2023/01/06 05:24:47;;;;;;;;;;;7.70;99.90;;;;;;4999806;28;20408;-77
2023/01/06 05:27:14;;;;;;;;;;;7.60;99.90;;;;;;4976256;28;20612;-78
2023/01/06 05:29:40;;;;;;;;;;;7.70;99.90;;;;;;4994775;28;20347;-77
2023/01/06 05:32:07;;;;;;;;;;;7.60;99.90;;;;;;4976799;28;19976;-77
2023/01/06 05:34:34;;;;;;;;;;;7.60;99.90;;;;;;4978723;28;20000;-76
2023/01/06 05:37:02;;;;;;;;;;;7.60;99.90;;;;;;4973705;28;19985;-77
2023/01/06 05:39:29;;;;;;;;;;;7.60;99.90;;;;;;4988881;28;19973;-77
2023/01/06 05:41:56;;;;;;;;;;;7.60;99.90;;;;;;4973139;28;19929;-78
2023/01/06 05:44:23;;;;;;;;;;;7.60;99.90;;;;;;4993982;28;19965;-77
2023/01/06 05:46:50;;;;;;;;;;;7.60;99.90;;;;;;4992733;28;19926;-77
2023/01/06 05:49:16;;;;;;;;;;;7.60;99.90;;;;;;4986428;28;19944;-77
2023/01/06 05:51:43;;;;;;;;;;;7.60;99.90;;;;;;4973664;28;20396;-77
2023/01/06 05:54:11;;;;;;;;;;;7.60;99.90;;;;;;4992486;28;19926;-77
2023/01/06 05:56:38;;;;;;;;;;;7.60;99.90;;;;;;4989110;28;20293;-77
2023/01/06 05:59:05;;;;;;;;;;;7.60;99.90;;;;;;4973474;28;19976;-77
2023/01/06 06:01:32;;;;;;;;;;;7.60;99.90;;;;;;4981997;28;19952;-78
2023/01/06 06:03:59;;;;;;;;;;;7.60;99.90;;;;;;4989975;28;19926;-77
2023/01/06 06:06:27;;;;;;;;;;;7.60;99.90;;;;;;4974148;28;19926;-77
2023/01/06 06:08:54;;;;;;;;;;;7.60;99.90;;;;;;4987518;28;20469;-77
2023/01/06 06:11:22;;;;;;;;;;;7.60;99.90;;;;;;4991812;28;19926;-77
2023/01/06 06:13:50;;;;;;;;;;;7.60;99.90;;;;;;4985138;28;20059;-77
2023/01/06 06:16:18;;;;;;;;;;;7.60;99.90;;;;;;4994057;28;19941;-77
2023/01/06 06:18:48;;;;;;;;;;;7.50;99.90;;;;;;4973417;28;19925;-78
2023/01/06 07:48:19;;;;;;;;;;;7.40;99.90;;;;;;5274116;23;19933;-80
2023/01/06 07:50:51;;;;;;;;;;;7.40;99.90;;;;;;5434537;23;19929;-81
2023/01/06 08:02:36;;;;;;;;;;;7.40;99.90;;;;;;5557932;23;19933;-81
2023/01/06 08:05:06;;;;;;;;;;;7.40;99.90;;;;;;5006441;28;19975;-81
2023/01/06 08:07:36;;;;;;;;;;;7.40;99.90;;;;;;5005158;28;19926;-81
2023/01/06 08:10:05;;;;;;;;;;;7.40;99.90;;;;;;4998665;28;19984;-80
2023/01/06 12:21:47;;;;;;;;;;;7.90;99.90;;;;;;5900971;23;19934;-79
2023/01/06 12:24:16;;;;;;;;;;;7.90;99.90;;;;;;4968931;28;19925;-79
2023/01/06 12:26:43;;;;;;;;;;;7.90;99.90;;;;;;4953283;28;19936;-79
2023/01/06 12:29:22;;;;;;;;;;;7.90;99.90;;;;;;4980469;28;19981;-79
2023/01/06 12:31:55;;;;;;;;;;;7.90;99.90;;;;;;4965922;28;19930;-79
2023/01/06 12:34:23;;;;;;;;;;;7.90;99.90;;;;;;4973499;28;19966;-79
2023/01/06 12:36:53;;;;;;;;;;;7.90;99.90;;;;;;4954815;28;20000;-79
2023/01/06 12:39:25;;;;;;;;;;;7.90;99.90;;;;;;4971723;28;19929;-79
2023/01/06 12:42:00;;;;;;;;;;;7.90;99.90;;;;;;4978151;28;20336;-80
2023/01/06 12:44:33;;;;;;;;;;;7.90;99.90;;;;;;4976974;28;19977;-79
2023/01/06 12:47:04;;;;;;;;;;;7.90;99.90;;;;;;4974217;28;19930;-79
2023/01/06 12:49:39;;;;;;;;;;;8.00;99.90;;;;;;4971151;28;20389;-79
2023/01/06 12:52:14;;;;;;;;;;;8.00;99.90;;;;;;4975769;28;19981;-79
2023/01/06 12:54:44;;;;;;;;;;;8.00;99.90;;;;;;4972649;28;19927;-80
2023/01/06 12:57:19;;;;;;;;;;;8.00;99.90;;;;;;4972343;28;19926;-79
2023/01/06 12:59:53;;;;;;;;;;;8.00;99.90;;;;;;4970815;28;20127;-79
2023/01/06 13:02:30;;;;;;;;;;;8.00;99.90;;;;;;4977778;28;20324;-78
2023/01/06 13:05:27;;;;;;;;;;;8.00;99.90;;;;;;4979744;28;19933;-79
2023/01/06 13:08:03;;;;;;;;;;;8.00;99.90;;;;;;4933277;28;19934;-79
2023/01/06 13:10:37;;;;;;;;;;;8.00;99.90;;;;;;4984628;28;19976;-79
2023/01/06 13:13:23;;;;;;;;;;;8.10;99.90;;;;;;4977415;28;19996;-79
2023/01/06 13:15:50;;;;;;;;;;;8.00;99.90;;;;;;4978121;28;19926;-79
2023/01/06 13:18:29;;;;;;;;;;;8.10;99.90;;;;;;4981532;28;19930;-79
2023/01/06 13:21:01;;;;;;;;;;;8.10;99.90;;;;;;4976828;28;19953;-80
2023/01/06 13:23:35;;;;;;;;;;;8.10;99.90;;;;;;4976610;28;19926;-79
2023/01/06 13:26:15;;;;;;;;;;;8.10;99.90;;;;;;4967216;28;19926;-79
2023/01/06 13:28:51;;;;;;;;;;;8.10;99.90;;;;;;4985532;28;19926;-79
2023/01/06 13:31:31;;;;;;;;;;;8.20;99.90;;;;;;4975207;28;20048;-79
2023/01/06 13:34:34;;;;;;;;;;;8.10;99.90;;;;;;4982355;28;20016;-79
2023/01/06 13:37:32;;;;;;;;;;;8.20;99.90;;;;;;4917711;29;20386;-79
2023/01/06 13:40:14;;;;;;;;;;;8.20;99.90;;;;;;4925984;29;19934;-79
2023/01/06 13:42:44;;;;;;;;;;;8.20;99.90;;;;;;4936119;28;20716;-79
2023/01/06 13:45:14;;;;;;;;;;;8.20;99.90;;;;;;4978439;28;19985;-79
2023/01/06 13:47:42;;;;;;;;;;;8.30;99.90;;;;;;4960528;28;19926;-79
2023/01/06 13:50:14;;;;;;;;;;;8.30;99.90;;;;;;4978894;28;19926;-80
2023/01/06 13:52:42;;;;;;;;;;;8.30;99.90;;;;;;4969824;28;20494;-78
2023/01/06 13:55:29;;;;;;;;;;;8.30;99.90;;;;;;4986820;28;20388;-79
2023/01/06 13:57:57;;;;;;;;;;;8.30;99.90;;;;;;4979397;28;20388;-79
2023/01/06 14:00:27;;;;;;;;;;;8.30;99.90;;;;;;4949384;28;19934;-79
2023/01/06 14:03:02;;;;;;;;;;;8.30;99.90;;;;;;4981874;28;20008;-79
2023/01/06 14:05:47;;;;;;;;;;;8.30;99.90;;;;;;4979052;28;20021;-79
2023/01/06 14:08:16;;;;;;;;;;;8.40;99.90;;;;;;4979562;28;19929;-79
2023/01/06 14:10:48;;;;;;;;;;;8.40;99.90;;;;;;4977922;28;20020;-79
2023/01/06 14:13:42;;;;;;;;;;;8.40;99.90;;;;;;4967646;28;20416;-79
2023/01/06 14:16:15;;;;;;;;;;;8.40;99.90;;;;;;4957376;28;19926;-80
2023/01/06 14:19:08;;;;;;;;;;;8.40;99.90;;;;;;4984506;28;19961;-79
2023/01/06 14:21:46;;;;;;;;;;;8.40;99.90;;;;;;4977357;28;19930;-79
2023/01/06 14:24:27;;;;;;;;;;;8.40;99.90;;;;;;4982263;28;19934;-79
2023/01/06 14:27:01;;;;;;;;;;;8.40;99.90;;;;;;4958145;28;19972;-79
2023/01/06 14:29:55;;;;;;;;;;;8.40;99.90;;;;;;4967125;28;19936;-80
2023/01/06 14:32:49;;;;;;;;;;;8.50;99.90;;;;;;4960112;28;19926;-79
2023/01/06 14:35:28;;;;;;;;;;;8.50;99.90;;;;;;4982460;28;20013;-80
2023/01/06 14:37:58;;;;;;;;;;;8.50;99.90;;;;;;4973532;28;19933;-78
2023/01/06 14:40:26;;;;;;;;;;;8.50;99.90;;;;;;4961008;28;19934;-79
2023/01/06 14:42:59;;;;;;;;;;;8.50;99.90;;;;;;4980872;28;19949;-79
2023/01/06 14:45:31;;;;;;;;;;;8.50;99.90;;;;;;4980259;28;19926;-80
2023/01/06 14:48:22;;;;;;;;;;;8.50;99.90;;;;;;4979160;28;20380;-79
2023/01/06 14:50:52;;;;;;;;;;;8.50;99.90;;;;;;4960616;28;19930;-79
2023/01/06 14:53:35;;;;;;;;;;;8.50;99.90;;;;;;4972771;28;19952;-79
2023/01/06 14:56:04;;;;;;;;;;;8.50;99.90;;;;;;4976211;28;19930;-79
2023/01/06 14:58:37;;;;;;;;;;;8.50;99.90;;;;;;4982357;28;19972;-79
2023/01/06 15:01:05;;;;;;;;;;;8.50;99.90;;;;;;4980260;28;19937;-79
2023/01/06 15:03:44;;;;;;;;;;;8.50;99.90;;;;;;4960013;28;19934;-79
2023/01/06 15:06:12;;;;;;;;;;;8.50;99.90;;;;;;4974499;28;19933;-79
2023/01/06 15:08:45;;;;;;;;;;;8.50;99.90;;;;;;4962496;28;19935;-80
2023/01/06 15:11:19;;;;;;;;;;;8.50;99.90;;;;;;4981928;28;19933;-79
2023/01/06 15:13:48;;;;;;;;;;;8.50;99.90;;;;;;4968810;28;20400;-80
2023/01/06 15:16:30;;;;;;;;;;;8.50;99.90;;;;;;4977967;28;19934;-79
2023/01/06 15:19:02;;;;;;;;;;;8.60;99.90;;;;;;4980399;28;19934;-78
2023/01/06 15:21:34;;;;;;;;;;;8.50;99.90;;;;;;4971059;28;20000;-80
2023/01/06 15:24:22;;;;;;;;;;;8.60;99.90;;;;;;4970156;28;20407;-79
2023/01/06 15:27:02;;;;;;;;;;;8.60;99.90;;;;;;4973123;28;19938;-80
2023/01/06 15:29:31;;;;;;;;;;;8.60;99.90;;;;;;4973238;28;19929;-81
2023/01/06 15:31:58;;;;;;;;;;;8.60;99.90;;;;;;4978174;28;19927;-81
2023/01/06 15:34:32;;;;;;;;;;;8.60;99.90;;;;;;4971062;28;19927;-80
2023/01/06 15:37:06;;;;;;;;;;;8.60;99.90;;;;;;4975179;28;20385;-78
2023/01/06 15:39:37;;;;;;;;;;;8.60;99.90;;;;;;4972122;28;19930;-78
2023/01/06 15:42:05;;;;;;;;;;;8.60;99.90;;;;;;4975092;28;19930;-79
2023/01/06 15:44:35;;;;;;;;;;;8.60;99.90;;;;;;4958893;28;19976;-79
2023/01/06 15:47:21;;;;;;;;;;;8.60;99.90;;;;;;4956229;28;19937;-79
2023/01/06 15:49:52;;;;;;;;;;;8.50;99.90;;;;;;4973933;28;19926;-79
2023/01/06 15:52:26;;;;;;;;;;;8.60;99.90;;;;;;4958138;28;20006;-79
2023/01/06 15:54:59;;;;;;;;;;;8.60;99.90;;;;;;4956853;28;19958;-80
2023/01/06 15:57:33;;;;;;;;;;;8.60;99.90;;;;;;4978834;28;19930;-81
2023/01/06 16:00:04;;;;;;;;;;;8.60;99.90;;;;;;4975104;28;19926;-80
2023/01/06 16:02:32;;;;;;;;;;;8.60;99.90;;;;;;4979591;28;20430;-81
2023/01/06 16:05:00;;;;;;;;;;;8.60;99.90;;;;;;4969632;28;19932;-81
2023/01/06 16:07:33;;;;;;;;;;;8.60;99.90;;;;;;4982074;28;19932;-80
2023/01/06 16:10:05;;;;;;;;;;;8.60;99.90;;;;;;4954657;28;20407;-81
2023/01/06 16:12:36;;;;;;;;;;;8.60;99.90;;;;;;4972564;28;19926;-80
2023/01/06 16:15:20;;;;;;;;;;;8.50;99.90;;;;;;4973188;28;19934;-81
2023/01/06 16:17:49;;;;;;;;;;;8.60;99.90;;;;;;4981350;28;20298;-81
2023/01/06 16:20:22;;;;;;;;;;;8.60;99.90;;;;;;4983349;28;20017;-81
2023/01/06 16:22:51;;;;;;;;;;;8.60;99.90;;;;;;4958749;28;20397;-81
2023/01/06 16:25:27;;;;;;;;;;;8.60;99.90;;;;;;4967660;28;19957;-80
2023/01/06 16:27:57;;;;;;;;;;;8.60;99.90;;;;;;4978142;28;19982;-80
2023/01/06 16:30:29;;;;;;;;;;;8.60;99.90;;;;;;4980854;28;20020;-81
2023/01/06 16:36:23;;;;;;;;;;;8.60;99.90;;;;;;4965421;28;19932;-81
2023/01/06 16:38:55;;;;;;;;;;;8.60;99.90;;;;;;4969683;28;20422;-81
2023/01/06 16:41:23;;;;;;;;;;;8.50;99.90;;;;;;4982652;28;19925;-82
2023/01/06 16:43:52;;;;;;;;;;;8.60;99.90;;;;;;4976313;28;19930;-80
2023/01/06 16:46:21;;;;;;;;;;;8.50;99.90;;;;;;4980856;28;19926;-80
2023/01/06 16:48:48;;;;;;;;;;;8.60;99.90;;;;;;4978269;28;19973;-80
2023/01/06 16:51:17;;;;;;;;;;;8.60;99.90;;;;;;4958029;28;19926;-81
2023/01/06 16:53:47;;;;;;;;;;;8.50;99.90;;;;;;4982133;28;19926;-81
2023/01/06 16:59:15;;;;;;;;;;;8.50;99.90;;;;;;5467015;22;19931;-81
2023/01/06 17:01:59;;;;;;;;;;;8.50;99.90;;;;;;5013074;28;20002;-81
2023/01/06 17:04:28;;;;;;;;;;;8.50;99.90;;;;;;4995464;28;20020;-80
2023/01/06 17:09:36;;;;;;;;;;;8.50;99.90;;;;;;4988949;28;19953;-79
2023/01/06 17:12:11;;;;;;;;;;;8.50;99.90;;;;;;4984798;28;19940;-79
2023/01/06 17:14:43;;;;;;;;;;;8.50;99.90;;;;;;4991438;28;20293;-81
2023/01/06 17:17:24;;;;;;;;;;;8.50;99.90;;;;;;4989654;28;19989;-80
2023/01/06 17:19:53;;;;;;;;;;;8.50;99.90;;;;;;4993323;28;19974;-80
2023/01/06 17:22:26;;;;;;;;;;;8.50;99.90;;;;;;4992469;28;19933;-80
2023/01/06 17:24:58;;;;;;;;;;;8.50;99.90;;;;;;4991808;28;19929;-80
2023/01/06 17:27:29;;;;;;;;;;;8.50;99.90;;;;;;4979341;28;20049;-78
2023/01/06 17:30:01;;;;;;;;;;;8.50;99.90;;;;;;4990561;28;19940;-78
2023/01/06 17:32:32;;;;;;;;;;;8.50;99.90;;;;;;4975683;28;19932;-79
2023/01/06 17:35:01;;;;;;;;;;;8.50;99.90;;;;;;4994451;28;19932;-80
2023/01/06 17:37:31;;;;;;;;;;;8.50;99.90;;;;;;4990678;28;19932;-79
2023/01/06 17:40:02;;;;;;;;;;;8.50;99.90;;;;;;4988578;28;19934;-79
2023/01/06 17:42:31;;;;;;;;;;;8.50;99.90;;;;;;4988506;28;19933;-79
2023/01/06 17:45:02;;;;;;;;;;;8.50;99.90;;;;;;4976726;28;20336;-78
2023/01/06 17:47:35;;;;;;;;;;;8.50;99.90;;;;;;4994419;28;19977;-80
2023/01/06 17:50:10;;;;;;;;;;;8.50;99.90;;;;;;4985791;28;19926;-79
2023/01/06 17:52:38;;;;;;;;;;;8.50;99.90;;;;;;4990570;28;20343;-80
2023/01/06 17:58:00;;;;;;;;;;;8.50;99.90;;;;;;4988314;28;19926;-79
2023/01/06 18:00:29;;;;;;;;;;;8.50;99.90;;;;;;4982004;28;20434;-80
2023/01/06 18:02:58;;;;;;;;;;;8.50;99.90;;;;;;4991194;28;20471;-80
2023/01/06 18:05:44;;;;;;;;;;;8.50;99.90;;;;;;4987099;28;19930;-79
2023/01/06 18:08:12;;;;;;;;;;;8.50;99.90;;;;;;4993497;28;19933;-81
2023/01/06 18:10:42;;;;;;;;;;;8.50;99.90;;;;;;4967819;28;19973;-81
2023/01/06 18:13:14;;;;;;;;;;;8.50;99.90;;;;;;4995082;28;19934;-81
2023/01/06 18:15:52;;;;;;;;;;;8.50;99.90;;;;;;4995170;28;20017;-81
2023/01/06 18:18:22;;;;;;;;;;;8.50;99.90;;;;;;4986031;28;19932;-82
2023/01/06 18:20:52;;;;;;;;;;;8.50;99.90;;;;;;4989020;28;19930;-81
2023/01/06 18:23:26;;;;;;;;;;;8.50;99.90;;;;;;4990439;28;19933;-82
2023/01/06 18:25:56;;;;;;;;;;;8.50;99.90;;;;;;4978208;28;20419;-80
2023/01/06 19:33:35;;;;;;;;;;;8.40;99.90;;;;;;6144336;23;20010;-80
2023/01/06 19:36:16;;;;;;;;;;;8.40;99.90;;;;;;4975274;28;19926;-80
